Time;durP1;ratioP1;P1;durP2;ratioP2;P2;SDS_P1;SDS_P2;PMS_P1;PMS_P2;Temp;Humidity;BMP_temperature;BMP_pressure;BME280_temperature;BME280_humidity;BME280_pressure;Samples;Min_cycle;Max_cycle;Signal;HPM_P1;HPM_P2
2021/05/29 00:00:52;;;;;;;;;;;15.30;75.20;;;;;;4291063;33;44321;-77
2021/05/29 00:03:20;;;;;;;;;;;15.30;75.30;;;;;;4303800;33;40107;-77
2021/05/29 00:05:47;;;;;;;;;;;15.30;75.40;;;;;;4290508;33;44690;-77
2021/05/29 00:08:14;;;;;;;;;;;15.30;75.40;;;;;;4304822;33;20014;-77
2021/05/29 00:10:43;;;;;;;;;;;15.20;75.40;;;;;;4304686;33;20006;-77
2021/05/29 00:13:11;;;;;;;;;;;15.20;75.40;;;;;;4290717;33;43395;-77
2021/05/29 00:15:38;;;;;;;;;;;15.20;75.40;;;;;;4278365;33;42506;-77
2021/05/29 00:18:06;;;;;;;;;;;15.20;75.30;;;;;;4291075;33;44307;-77
2021/05/29 00:20:35;;;;;;;;;;;15.20;75.30;;;;;;4303602;33;44544;-77
2021/05/29 00:23:02;;;;;;;;;;;15.10;75.30;;;;;;4304262;33;20904;-77
2021/05/29 00:25:29;;;;;;;;;;;15.10;75.40;;;;;;4303757;33;40879;-77
2021/05/29 00:27:56;;;;;;;;;;;15.10;75.50;;;;;;4290654;33;42434;-77
2021/05/29 00:30:24;;;;;;;;;;;15.10;75.50;;;;;;4303320;33;44529;-77
2021/05/29 00:32:51;;;;;;;;;;;15.10;75.40;;;;;;4303904;33;43336;-77
2021/05/29 00:35:18;;;;;;;;;;;15.10;75.50;;;;;;4303360;33;43079;-77
2021/05/29 00:37:45;;;;;;;;;;;15.10;75.60;;;;;;4303582;33;44534;-77
2021/05/29 00:40:14;;;;;;;;;;;15.00;75.70;;;;;;4302237;33;42279;-77
2021/05/29 00:42:42;;;;;;;;;;;15.00;75.70;;;;;;4303084;33;44202;-77
2021/05/29 00:45:10;;;;;;;;;;;15.00;75.70;;;;;;4290667;33;36153;-77
2021/05/29 00:47:37;;;;;;;;;;;15.00;75.60;;;;;;4303176;33;43945;-77
2021/05/29 00:50:06;;;;;;;;;;;15.00;75.50;;;;;;4303223;33;44174;-76
2021/05/29 00:52:33;;;;;;;;;;;15.00;75.50;;;;;;4290170;33;44601;-77
2021/05/29 00:55:02;;;;;;;;;;;14.90;75.60;;;;;;4303216;33;44640;-77
2021/05/29 00:57:29;;;;;;;;;;;14.90;75.70;;;;;;4289933;33;43366;-77
2021/05/29 00:59:56;;;;;;;;;;;14.90;75.50;;;;;;4289839;33;43094;-77
2021/05/29 01:02:23;;;;;;;;;;;14.90;75.60;;;;;;4303298;33;29357;-77
2021/05/29 01:04:50;;;;;;;;;;;14.90;75.60;;;;;;4303095;33;43737;-76
2021/05/29 01:07:17;;;;;;;;;;;14.90;75.60;;;;;;4304154;33;20005;-76
2021/05/29 01:09:45;;;;;;;;;;;14.90;75.60;;;;;;4303014;33;44528;-77
2021/05/29 01:12:14;;;;;;;;;;;14.90;75.60;;;;;;4303648;33;20016;-76
2021/05/29 01:14:56;;;;;;;;;;;14.80;75.60;;;;;;4304218;33;20018;-77
2021/05/29 01:17:24;;;;;;;;;;;14.80;75.60;;;;;;4290007;33;41120;-76
2021/05/29 01:19:51;;;;;;;;;;;14.80;75.60;;;;;;4290025;33;43255;-77
2021/05/29 01:22:33;;;;;;;;;;;14.80;75.60;;;;;;4302436;33;44710;-76
2021/05/29 01:25:03;;;;;;;;;;;14.80;75.60;;;;;;4303133;33;21595;-76
2021/05/29 01:27:32;;;;;;;;;;;14.70;75.60;;;;;;4302487;33;44623;-76
2021/05/29 01:29:59;;;;;;;;;;;14.70;75.70;;;;;;4289724;33;41808;-76
2021/05/29 01:32:33;;;;;;;;;;;14.70;75.70;;;;;;4289389;33;43979;-76
2021/05/29 01:35:05;;;;;;;;;;;14.70;75.70;;;;;;4302803;33;44667;-77
2021/05/29 01:37:35;;;;;;;;;;;14.70;75.70;;;;;;4291092;33;20011;-77
2021/05/29 01:40:03;;;;;;;;;;;14.70;75.70;;;;;;4303869;33;20010;-76
2021/05/29 01:42:30;;;;;;;;;;;14.60;75.60;;;;;;4289583;33;43653;-77
2021/05/29 01:44:57;;;;;;;;;;;14.60;75.70;;;;;;4277621;33;39378;-77
2021/05/29 01:47:27;;;;;;;;;;;14.60;75.60;;;;;;4289483;33;44307;-78
2021/05/29 01:49:54;;;;;;;;;;;14.60;75.80;;;;;;4277328;33;44197;-76
2021/05/29 01:52:41;;;;;;;;;;;14.60;75.80;;;;;;4302240;33;43657;-76
2021/05/29 01:55:09;;;;;;;;;;;14.50;75.80;;;;;;4289032;33;43623;-77
2021/05/29 01:57:36;;;;;;;;;;;14.60;76.00;;;;;;4288841;33;46477;-77
2021/05/29 02:00:06;;;;;;;;;;;14.50;76.00;;;;;;4289889;33;43649;-76
2021/05/29 02:02:34;;;;;;;;;;;14.50;76.00;;;;;;4288850;33;42554;-76
2021/05/29 02:05:27;;;;;;;;;;;14.50;76.10;;;;;;4302174;33;34603;-77
2021/05/29 02:07:57;;;;;;;;;;;14.50;76.10;;;;;;4286975;33;36202;-77
2021/05/29 02:10:30;;;;;;;;;;;14.50;76.10;;;;;;4301979;33;43237;-76
2021/05/29 02:12:59;;;;;;;;;;;14.40;76.20;;;;;;4303265;33;20040;-77
2021/05/29 02:15:28;;;;;;;;;;;14.50;76.30;;;;;;4303338;33;20001;-77
2021/05/29 02:17:56;;;;;;;;;;;14.40;76.20;;;;;;4290094;33;20014;-76
2021/05/29 02:20:46;;;;;;;;;;;14.40;76.20;;;;;;4298102;33;20054;-76
2021/05/29 02:23:19;;;;;;;;;;;14.40;76.30;;;;;;4290259;33;20017;-77
2021/05/29 02:25:47;;;;;;;;;;;14.30;76.20;;;;;;4278014;33;20052;-77
2021/05/29 02:28:23;;;;;;;;;;;14.30;76.30;;;;;;4302921;33;20018;-77
2021/05/29 02:30:53;;;;;;;;;;;14.40;76.30;;;;;;4290176;33;20067;-77
2021/05/29 02:33:21;;;;;;;;;;;14.30;77.00;;;;;;4302298;33;25341;-77
2021/05/29 02:35:49;;;;;;;;;;;14.30;76.20;;;;;;4290254;33;20010;-77
2021/05/29 02:38:19;;;;;;;;;;;14.30;76.40;;;;;;4289844;33;20089;-77
2021/05/29 02:40:48;;;;;;;;;;;14.30;76.40;;;;;;4303014;33;20352;-77
2021/05/29 02:43:16;;;;;;;;;;;14.30;76.40;;;;;;4303246;33;20058;-77
2021/05/29 02:45:46;;;;;;;;;;;14.30;76.40;;;;;;4289384;33;20054;-77
2021/05/29 02:48:14;;;;;;;;;;;14.20;76.30;;;;;;4289763;33;19994;-76
2021/05/29 02:50:42;;;;;;;;;;;14.20;76.40;;;;;;4290297;33;20061;-77
2021/05/29 02:53:10;;;;;;;;;;;14.20;76.40;;;;;;4302983;33;20009;-76
2021/05/29 02:55:38;;;;;;;;;;;14.20;76.40;;;;;;4302943;33;20016;-77
2021/05/29 02:58:08;;;;;;;;;;;14.20;76.50;;;;;;4289895;33;20355;-77
2021/05/29 03:00:37;;;;;;;;;;;14.20;76.60;;;;;;4302267;33;21300;-76
2021/05/29 03:03:07;;;;;;;;;;;14.20;76.60;;;;;;4302225;33;20344;-77
2021/05/29 03:05:35;;;;;;;;;;;14.20;76.50;;;;;;4302236;33;20404;-77
2021/05/29 03:08:03;;;;;;;;;;;14.10;76.50;;;;;;4302347;33;20006;-77
2021/05/29 03:10:33;;;;;;;;;;;14.10;76.50;;;;;;4302028;33;20367;-77
2021/05/29 03:13:00;;;;;;;;;;;14.10;76.60;;;;;;4302284;33;20021;-77
2021/05/29 03:15:28;;;;;;;;;;;14.10;76.70;;;;;;4303034;33;20010;-77
2021/05/29 03:17:55;;;;;;;;;;;14.10;76.70;;;;;;4289573;33;20010;-77
2021/05/29 03:20:26;;;;;;;;;;;14.00;76.70;;;;;;4302850;33;20018;-77
2021/05/29 03:22:54;;;;;;;;;;;14.00;76.70;;;;;;4289723;33;20394;-77
2021/05/29 03:25:23;;;;;;;;;;;14.00;76.80;;;;;;4302757;33;20078;-77
2021/05/29 03:27:54;;;;;;;;;;;14.00;76.80;;;;;;4302772;33;20006;-77
2021/05/29 03:30:25;;;;;;;;;;;14.00;76.90;;;;;;4302749;33;20088;-77
2021/05/29 03:32:53;;;;;;;;;;;14.00;77.00;;;;;;4302395;33;20025;-77
2021/05/29 03:35:26;;;;;;;;;;;14.00;76.90;;;;;;4288783;33;20009;-77
2021/05/29 03:37:55;;;;;;;;;;;14.00;76.90;;;;;;4302906;33;20126;-77
2021/05/29 03:40:23;;;;;;;;;;;14.00;76.90;;;;;;4302365;33;20422;-77
2021/05/29 03:42:50;;;;;;;;;;;13.90;76.90;;;;;;4277480;33;20050;-77
2021/05/29 03:45:21;;;;;;;;;;;13.90;77.00;;;;;;4302169;33;20053;-77
2021/05/29 03:47:48;;;;;;;;;;;13.90;77.00;;;;;;4301155;33;42358;-77
2021/05/29 03:50:20;;;;;;;;;;;13.90;77.20;;;;;;4288033;33;43599;-77
2021/05/29 03:52:50;;;;;;;;;;;13.90;77.30;;;;;;4302123;33;20014;-77
2021/05/29 03:55:18;;;;;;;;;;;13.90;77.30;;;;;;4288325;33;43359;-77
2021/05/29 03:57:45;;;;;;;;;;;13.90;77.30;;;;;;4302494;33;20351;-77
2021/05/29 04:00:19;;;;;;;;;;;13.80;77.30;;;;;;4302303;33;20361;-77
2021/05/29 04:02:47;;;;;;;;;;;13.80;77.50;;;;;;4302131;33;20054;-77
2021/05/29 04:05:14;;;;;;;;;;;13.80;77.50;;;;;;4288171;33;42734;-77
2021/05/29 04:07:41;;;;;;;;;;;13.80;77.50;;;;;;4288022;33;43468;-77
2021/05/29 04:10:22;;;;;;;;;;;13.80;77.60;;;;;;4301551;33;20772;-76
2021/05/29 04:12:50;;;;;;;;;;;13.80;77.50;;;;;;4301690;33;29149;-77
2021/05/29 04:15:17;;;;;;;;;;;13.80;77.60;;;;;;4303292;33;44329;-77
2021/05/29 04:17:45;;;;;;;;;;;13.80;77.60;;;;;;4290627;33;44479;-77
2021/05/29 04:20:13;;;;;;;;;;;13.80;77.70;;;;;;4290138;33;44659;-77
2021/05/29 04:22:40;;;;;;;;;;;13.80;77.70;;;;;;4303571;33;43280;-77
2021/05/29 04:25:09;;;;;;;;;;;13.80;77.80;;;;;;4303435;33;44113;-77
2021/05/29 04:27:36;;;;;;;;;;;13.70;77.80;;;;;;4303703;33;44439;-77
2021/05/29 04:30:06;;;;;;;;;;;13.70;77.90;;;;;;4290490;33;37011;-77
2021/05/29 04:32:35;;;;;;;;;;;13.70;78.00;;;;;;4303824;33;37634;-78
2021/05/29 04:35:04;;;;;;;;;;;13.70;78.00;;;;;;4303877;33;44185;-78
2021/05/29 04:37:32;;;;;;;;;;;13.70;78.10;;;;;;4303741;33;44410;-77
2021/05/29 04:39:59;;;;;;;;;;;13.70;78.10;;;;;;4303873;33;24910;-78
2021/05/29 04:42:26;;;;;;;;;;;13.70;78.20;;;;;;4303332;33;43661;-78
2021/05/29 04:44:53;;;;;;;;;;;13.70;78.30;;;;;;4291726;33;20006;-78
2021/05/29 04:47:20;;;;;;;;;;;13.60;78.40;;;;;;4303028;33;39566;-78
2021/05/29 04:49:47;;;;;;;;;;;13.70;78.40;;;;;;4303104;33;43526;-77
2021/05/29 04:52:14;;;;;;;;;;;13.70;78.60;;;;;;4290677;33;43306;-78
2021/05/29 04:54:41;;;;;;;;;;;13.70;78.60;;;;;;4302918;33;43397;-78
2021/05/29 04:57:08;;;;;;;;;;;13.60;78.70;;;;;;4304526;33;20408;-77
2021/05/29 04:59:35;;;;;;;;;;;13.60;78.70;;;;;;4303215;33;43412;-78
2021/05/29 05:02:05;;;;;;;;;;;13.70;78.70;;;;;;4291647;33;20447;-78
2021/05/29 05:04:35;;;;;;;;;;;13.70;78.70;;;;;;4302915;33;43376;-77
2021/05/29 05:07:02;;;;;;;;;;;13.70;78.80;;;;;;4302570;33;44585;-77
2021/05/29 05:09:29;;;;;;;;;;;13.60;78.90;;;;;;4302900;33;43548;-77
2021/05/29 05:11:56;;;;;;;;;;;13.60;78.90;;;;;;4303148;33;37444;-77
2021/05/29 05:14:23;;;;;;;;;;;13.60;78.90;;;;;;4303073;33;44753;-77
2021/05/29 05:16:50;;;;;;;;;;;13.70;79.00;;;;;;4290267;33;43124;-77
2021/05/29 05:19:18;;;;;;;;;;;13.60;79.00;;;;;;4290749;33;20024;-77
2021/05/29 05:21:45;;;;;;;;;;;13.60;79.10;;;;;;4289497;33;44323;-77
2021/05/29 05:24:12;;;;;;;;;;;13.60;79.10;;;;;;4302520;33;42763;-78
2021/05/29 05:26:39;;;;;;;;;;;13.60;79.20;;;;;;4301960;33;44975;-77
2021/05/29 05:29:06;;;;;;;;;;;13.60;79.30;;;;;;4302443;33;43550;-77
2021/05/29 05:31:33;;;;;;;;;;;13.60;79.40;;;;;;4302850;33;44708;-77
2021/05/29 05:34:07;;;;;;;;;;;13.60;79.50;;;;;;4303140;33;24678;-77
2021/05/29 05:36:35;;;;;;;;;;;13.70;79.60;;;;;;4289394;33;43457;-77
2021/05/29 05:39:04;;;;;;;;;;;13.70;79.50;;;;;;4302327;33;43269;-77
2021/05/29 05:41:31;;;;;;;;;;;13.60;79.40;;;;;;4277550;33;44436;-77
2021/05/29 05:44:01;;;;;;;;;;;13.60;79.30;;;;;;4289096;33;45113;-77
2021/05/29 05:46:28;;;;;;;;;;;13.70;79.40;;;;;;4289154;33;43379;-77
2021/05/29 05:48:56;;;;;;;;;;;13.70;79.60;;;;;;4302425;33;39885;-77
2021/05/29 05:51:24;;;;;;;;;;;13.70;79.60;;;;;;4302329;33;43514;-77
2021/05/29 05:53:51;;;;;;;;;;;13.70;79.70;;;;;;4302543;33;43452;-77
2021/05/29 05:56:25;;;;;;;;;;;13.70;79.80;;;;;;4303283;33;20020;-77
2021/05/29 05:58:55;;;;;;;;;;;13.70;79.90;;;;;;4289646;33;35419;-77
2021/05/29 06:01:23;;;;;;;;;;;13.70;80.00;;;;;;4302081;33;43616;-77
2021/05/29 06:03:50;;;;;;;;;;;13.70;80.20;;;;;;4289079;33;44599;-77
2021/05/29 06:06:17;;;;;;;;;;;13.80;80.40;;;;;;4302258;33;42776;-77
2021/05/29 06:08:44;;;;;;;;;;;13.80;80.50;;;;;;4302227;33;44675;-77
2021/05/29 06:11:14;;;;;;;;;;;13.80;80.60;;;;;;4288820;33;39711;-77
2021/05/29 06:19:18;;;;;;;;;;;13.80;80.70;;;;;;4302303;33;44248;-77
2021/05/29 06:21:48;;;;;;;;;;;13.90;81.00;;;;;;4302813;33;30279;-77
2021/05/29 06:24:24;;;;;;;;;;;13.90;81.00;;;;;;4302231;33;44320;-78
2021/05/29 06:26:51;;;;;;;;;;;13.90;81.20;;;;;;4302020;33;43673;-77
2021/05/29 06:29:18;;;;;;;;;;;13.90;81.20;;;;;;4289356;33;34350;-77
2021/05/29 06:31:46;;;;;;;;;;;13.90;81.20;;;;;;4301480;33;43115;-77
2021/05/29 06:34:13;;;;;;;;;;;13.90;81.30;;;;;;4301791;33;43653;-77
2021/05/29 06:36:41;;;;;;;;;;;14.00;81.40;;;;;;4289559;33;20010;-77
2021/05/29 06:39:08;;;;;;;;;;;14.00;81.50;;;;;;4301458;33;37099;-78
2021/05/29 06:41:36;;;;;;;;;;;14.00;81.50;;;;;;4301409;33;43936;-77
2021/05/29 06:44:03;;;;;;;;;;;14.00;81.50;;;;;;4301791;33;43972;-77
2021/05/29 06:46:31;;;;;;;;;;;14.00;81.50;;;;;;4302611;33;20023;-77
2021/05/29 06:49:02;;;;;;;;;;;14.00;81.50;;;;;;4302584;33;20408;-77
2021/05/29 06:51:36;;;;;;;;;;;14.10;81.60;;;;;;4302862;33;20033;-77
2021/05/29 06:54:10;;;;;;;;;;;14.10;82.50;;;;;;4289671;33;20483;-77
2021/05/29 06:59:23;;;;;;;;;;;14.10;81.80;;;;;;4302436;33;28407;-77
2021/05/29 07:01:50;;;;;;;;;;;14.10;81.80;;;;;;4302451;33;20065;-77
2021/05/29 07:04:20;;;;;;;;;;;14.10;81.80;;;;;;4288723;33;30213;-77
2021/05/29 07:06:50;;;;;;;;;;;14.10;81.80;;;;;;4288666;33;20929;-77
2021/05/29 07:09:19;;;;;;;;;;;14.10;81.90;;;;;;4302727;33;20012;-77
2021/05/29 07:11:49;;;;;;;;;;;14.10;81.90;;;;;;4289585;33;20044;-77
2021/05/29 07:14:16;;;;;;;;;;;14.10;82.10;;;;;;4303053;33;20010;-77
2021/05/29 07:16:51;;;;;;;;;;;14.20;82.10;;;;;;4290255;33;20446;-77
2021/05/29 07:19:19;;;;;;;;;;;14.20;82.20;;;;;;4289215;33;20002;-77
2021/05/29 07:21:47;;;;;;;;;;;14.20;82.30;;;;;;4289612;33;19998;-77
2021/05/29 07:24:14;;;;;;;;;;;14.20;82.30;;;;;;4302404;33;20024;-77
2021/05/29 07:26:42;;;;;;;;;;;14.20;82.50;;;;;;4302672;33;20018;-77
2021/05/29 07:29:09;;;;;;;;;;;14.20;82.50;;;;;;4302522;33;20020;-77
2021/05/29 07:31:41;;;;;;;;;;;14.20;82.70;;;;;;4289661;33;20040;-77
2021/05/29 07:34:08;;;;;;;;;;;14.20;83.50;;;;;;4302250;33;20014;-77
2021/05/29 07:36:38;;;;;;;;;;;14.20;82.80;;;;;;4302492;33;20006;-77
2021/05/29 07:39:06;;;;;;;;;;;14.20;82.90;;;;;;4289286;33;20014;-77
2021/05/29 07:41:34;;;;;;;;;;;14.20;83.00;;;;;;4302103;33;20058;-77
2021/05/29 07:44:02;;;;;;;;;;;14.30;83.10;;;;;;4289259;33;20014;-77
2021/05/29 07:46:30;;;;;;;;;;;14.30;83.10;;;;;;4302352;33;20016;-77
2021/05/29 07:49:03;;;;;;;;;;;14.30;83.20;;;;;;4303543;33;20099;-77
2021/05/29 07:51:39;;;;;;;;;;;14.30;83.30;;;;;;4305499;33;20006;-77
2021/05/29 07:54:13;;;;;;;;;;;14.30;83.40;;;;;;4292039;33;20785;-77
2021/05/29 07:56:46;;;;;;;;;;;14.30;83.40;;;;;;4291888;33;20352;-77
2021/05/29 07:59:17;;;;;;;;;;;14.30;83.50;;;;;;4292279;33;20002;-77
2021/05/29 08:01:50;;;;;;;;;;;14.30;83.60;;;;;;4305183;33;20438;-77
2021/05/29 08:04:20;;;;;;;;;;;14.30;83.60;;;;;;4291319;33;20091;-77
2021/05/29 08:06:55;;;;;;;;;;;14.40;83.70;;;;;;4291537;33;20363;-77
2021/05/29 08:09:28;;;;;;;;;;;14.40;83.90;;;;;;4305002;33;20020;-77
2021/05/29 08:11:57;;;;;;;;;;;14.40;84.00;;;;;;4305193;33;20005;-77
2021/05/29 08:14:29;;;;;;;;;;;14.40;84.00;;;;;;4292194;33;20349;-77
2021/05/29 08:17:04;;;;;;;;;;;14.40;84.10;;;;;;4304684;33;19994;-76
2021/05/29 08:19:34;;;;;;;;;;;14.40;84.20;;;;;;4305047;33;20014;-76
2021/05/29 08:22:04;;;;;;;;;;;14.40;84.10;;;;;;4304955;33;20006;-77
2021/05/29 08:24:33;;;;;;;;;;;14.40;84.20;;;;;;4304563;33;20002;-77
2021/05/29 08:27:09;;;;;;;;;;;14.50;84.20;;;;;;4291999;33;20110;-77
2021/05/29 08:29:39;;;;;;;;;;;14.50;84.30;;;;;;4291751;33;20343;-77
2021/05/29 08:32:11;;;;;;;;;;;14.50;84.30;;;;;;4304776;33;20047;-76
2021/05/29 08:34:41;;;;;;;;;;;14.50;84.40;;;;;;4304900;33;20032;-77
2021/05/29 08:37:17;;;;;;;;;;;14.50;84.40;;;;;;4304267;33;23003;-77
2021/05/29 08:39:44;;;;;;;;;;;14.50;84.30;;;;;;4290719;33;20115;-76
2021/05/29 08:42:11;;;;;;;;;;;14.50;84.40;;;;;;4290463;33;25938;-77
2021/05/29 08:44:38;;;;;;;;;;;14.50;84.30;;;;;;4290317;33;20408;-77
2021/05/29 08:47:05;;;;;;;;;;;14.60;84.50;;;;;;4304544;33;20016;-76
2021/05/29 08:49:35;;;;;;;;;;;14.60;84.50;;;;;;4303490;33;20010;-76
2021/05/29 08:52:08;;;;;;;;;;;14.60;84.50;;;;;;4291251;33;20013;-77
2021/05/29 08:54:42;;;;;;;;;;;14.60;84.40;;;;;;4291897;33;20054;-77
2021/05/29 08:57:12;;;;;;;;;;;14.60;84.10;;;;;;4304933;33;20016;-78
2021/05/29 08:59:42;;;;;;;;;;;14.70;83.70;;;;;;4278476;33;20002;-77
2021/05/29 09:02:13;;;;;;;;;;;14.70;83.30;;;;;;4290403;33;20018;-76
2021/05/29 09:05:00;;;;;;;;;;;14.70;83.20;;;;;;4304126;33;20010;-77
2021/05/29 09:07:27;;;;;;;;;;;14.80;83.30;;;;;;4291229;33;20018;-77
2021/05/29 09:10:17;;;;;;;;;;;14.80;83.30;;;;;;4302766;33;37109;-77
2021/05/29 09:13:01;;;;;;;;;;;14.90;82.90;;;;;;4290325;33;23217;-77
2021/05/29 09:15:45;;;;;;;;;;;14.90;83.00;;;;;;4303392;33;20314;-76
2021/05/29 09:18:31;;;;;;;;;;;15.00;82.90;;;;;;4304583;33;20016;-76
2021/05/29 09:21:17;;;;;;;;;;;15.00;82.50;;;;;;4303622;33;23309;-77
2021/05/29 09:24:10;;;;;;;;;;;15.10;82.10;;;;;;4290581;33;20069;-76
2021/05/29 09:26:42;;;;;;;;;;;15.10;81.90;;;;;;4301467;33;20028;-76
2021/05/29 09:29:13;;;;;;;;;;;15.20;82.20;;;;;;4290934;33;20054;-77
2021/05/29 09:32:03;;;;;;;;;;;15.20;82.00;;;;;;4291238;33;20305;-76
2021/05/29 09:34:42;;;;;;;;;;;15.20;82.00;;;;;;4290658;33;20392;-76
2021/05/29 09:37:12;;;;;;;;;;;15.30;82.00;;;;;;4303825;33;19998;-76
2021/05/29 09:39:41;;;;;;;;;;;15.30;81.80;;;;;;4290394;33;20008;-77
2021/05/29 09:42:11;;;;;;;;;;;15.30;81.70;;;;;;4302308;33;44360;-76
2021/05/29 09:44:43;;;;;;;;;;;15.30;81.50;;;;;;4290769;33;20003;-76
2021/05/29 09:47:18;;;;;;;;;;;15.40;80.80;;;;;;4289301;33;42916;-76
2021/05/29 09:49:59;;;;;;;;;;;15.40;80.70;;;;;;4302933;33;34023;-77
2021/05/29 09:52:45;;;;;;;;;;;15.40;80.50;;;;;;4302580;33;44132;-76
2021/05/29 09:55:13;;;;;;;;;;;15.40;80.40;;;;;;4302941;33;38575;-76
2021/05/29 09:57:56;;;;;;;;;;;15.50;79.80;;;;;;4290374;33;20391;-76
2021/05/29 10:00:39;;;;;;;;;;;15.50;79.40;;;;;;4302557;33;36118;-76
2021/05/29 10:03:12;;;;;;;;;;;15.50;79.60;;;;;;4290083;33;20024;-76
2021/05/29 10:05:48;;;;;;;;;;;15.60;79.30;;;;;;4290548;33;20006;-76
2021/05/29 10:08:21;;;;;;;;;;;15.60;78.20;;;;;;4303389;33;20085;-76
2021/05/29 10:10:54;;;;;;;;;;;15.60;78.20;;;;;;4303525;33;20044;-76
2021/05/29 10:13:25;;;;;;;;;;;15.60;77.60;;;;;;4303193;33;20109;-76
2021/05/29 10:15:55;;;;;;;;;;;15.60;78.10;;;;;;4290132;33;20057;-76
2021/05/29 10:18:28;;;;;;;;;;;15.60;77.20;;;;;;4303227;33;20010;-76
2021/05/29 10:21:00;;;;;;;;;;;15.60;76.90;;;;;;4289996;33;19995;-76
2021/05/29 10:23:38;;;;;;;;;;;15.70;77.50;;;;;;4303442;33;20040;-76
2021/05/29 10:26:13;;;;;;;;;;;15.70;77.10;;;;;;4290412;33;19999;-76
2021/05/29 10:28:49;;;;;;;;;;;15.70;76.90;;;;;;4302209;33;37981;-76
2021/05/29 10:31:25;;;;;;;;;;;15.70;76.90;;;;;;4302292;33;37088;-76
2021/05/29 10:34:00;;;;;;;;;;;15.70;77.10;;;;;;4289183;33;45066;-76
2021/05/29 10:36:42;;;;;;;;;;;15.70;76.80;;;;;;4302064;33;43721;-76
2021/05/29 10:39:28;;;;;;;;;;;15.70;76.40;;;;;;4302403;33;28332;-73
2021/05/29 10:42:02;;;;;;;;;;;15.80;76.20;;;;;;4302778;33;20500;-73
2021/05/29 10:44:35;;;;;;;;;;;15.80;75.80;;;;;;4302991;33;20028;-74
2021/05/29 10:47:05;;;;;;;;;;;15.80;75.70;;;;;;4302622;33;20016;-73
2021/05/29 10:49:51;;;;;;;;;;;15.80;75.50;;;;;;4302567;33;20017;-73
2021/05/29 10:52:31;;;;;;;;;;;15.80;75.00;;;;;;4288882;33;29333;-73
2021/05/29 10:55:16;;;;;;;;;;;15.90;74.60;;;;;;4302563;33;20010;-74
2021/05/29 10:57:54;;;;;;;;;;;15.90;74.90;;;;;;4302524;33;20040;-73
2021/05/29 11:00:31;;;;;;;;;;;15.90;75.40;;;;;;4289328;33;20364;-74
2021/05/29 11:03:22;;;;;;;;;;;15.90;75.30;;;;;;4302511;33;20014;-74
2021/05/29 11:05:59;;;;;;;;;;;16.00;75.00;;;;;;4282442;33;20006;-74
2021/05/29 11:08:45;;;;;;;;;;;16.00;74.80;;;;;;4302622;33;20014;-74
2021/05/29 11:11:31;;;;;;;;;;;16.00;74.90;;;;;;4289890;33;20019;-74
2021/05/29 11:14:14;;;;;;;;;;;16.00;74.30;;;;;;4301944;33;20028;-74
2021/05/29 11:16:47;;;;;;;;;;;16.10;74.30;;;;;;4289579;33;20018;-74
2021/05/29 11:19:14;;;;;;;;;;;16.10;74.70;;;;;;4288430;33;42593;-74
2021/05/29 11:21:57;;;;;;;;;;;16.10;74.50;;;;;;4301789;33;35573;-73
2021/05/29 11:24:26;;;;;;;;;;;16.10;74.30;;;;;;4301040;33;42493;-74
2021/05/29 11:26:56;;;;;;;;;;;16.10;74.00;;;;;;4289213;33;20006;-74
2021/05/29 11:29:48;;;;;;;;;;;16.10;73.70;;;;;;4290142;33;20024;-74
2021/05/29 11:32:47;;;;;;;;;;;16.10;73.40;;;;;;4289672;33;20438;-74
2021/05/29 11:35:27;;;;;;;;;;;16.10;73.80;;;;;;4302194;33;20021;-74
2021/05/29 11:37:57;;;;;;;;;;;16.10;73.90;;;;;;4289092;33;20066;-74
2021/05/29 11:40:46;;;;;;;;;;;16.20;73.90;;;;;;4289223;33;20061;-74
2021/05/29 11:43:14;;;;;;;;;;;16.20;73.70;;;;;;4302648;33;20010;-74
2021/05/29 11:45:54;;;;;;;;;;;16.20;73.90;;;;;;4277256;33;19999;-74
2021/05/29 11:48:29;;;;;;;;;;;16.30;73.90;;;;;;4289193;33;20358;-74
2021/05/29 11:51:11;;;;;;;;;;;16.30;73.70;;;;;;4302633;33;20016;-74
2021/05/29 11:53:46;;;;;;;;;;;16.30;73.80;;;;;;4289030;33;19991;-75
2021/05/29 11:56:23;;;;;;;;;;;16.30;74.00;;;;;;4289610;33;20068;-74
2021/05/29 11:58:54;;;;;;;;;;;16.40;74.00;;;;;;4289081;33;20383;-74
2021/05/29 12:01:29;;;;;;;;;;;16.40;74.00;;;;;;4274365;33;20046;-74
2021/05/29 12:04:10;;;;;;;;;;;16.40;74.10;;;;;;4275009;33;20029;-74
2021/05/29 12:06:41;;;;;;;;;;;16.40;73.80;;;;;;4286406;33;43771;-74
2021/05/29 12:09:13;;;;;;;;;;;16.40;73.60;;;;;;4274580;33;19994;-74
2021/05/29 12:11:47;;;;;;;;;;;16.40;73.70;;;;;;4287690;33;20363;-74
2021/05/29 12:14:23;;;;;;;;;;;16.50;73.50;;;;;;4273703;33;42647;-74
2021/05/29 12:16:59;;;;;;;;;;;16.50;73.50;;;;;;4273284;33;43221;-75
2021/05/29 12:19:32;;;;;;;;;;;16.60;73.70;;;;;;4273638;33;43937;-74
2021/05/29 12:22:03;;;;;;;;;;;16.60;73.80;;;;;;4274607;33;20014;-74
2021/05/29 12:24:35;;;;;;;;;;;16.60;73.50;;;;;;4287826;33;20024;-74
2021/05/29 12:27:05;;;;;;;;;;;16.60;73.60;;;;;;4274951;33;20104;-74
2021/05/29 12:29:34;;;;;;;;;;;16.60;73.40;;;;;;4287610;33;20010;-75
2021/05/29 12:32:04;;;;;;;;;;;16.60;73.30;;;;;;4287495;33;20400;-75
2021/05/29 12:34:37;;;;;;;;;;;16.60;73.30;;;;;;4274096;33;43538;-74
2021/05/29 12:37:10;;;;;;;;;;;16.60;73.20;;;;;;4289680;33;20007;-74
2021/05/29 12:39:50;;;;;;;;;;;16.70;72.90;;;;;;4289783;33;20011;-75
2021/05/29 12:42:27;;;;;;;;;;;16.70;72.90;;;;;;4288414;33;44719;-74
2021/05/29 12:44:58;;;;;;;;;;;16.70;72.70;;;;;;4289663;33;20069;-74
2021/05/29 12:47:38;;;;;;;;;;;16.70;72.70;;;;;;4276728;33;20011;-74
2021/05/29 12:50:15;;;;;;;;;;;16.70;72.40;;;;;;4289532;33;24049;-75
2021/05/29 12:52:45;;;;;;;;;;;16.80;72.70;;;;;;4277246;33;20010;-74
2021/05/29 12:55:22;;;;;;;;;;;16.80;72.90;;;;;;4289932;33;20070;-74
2021/05/29 12:58:00;;;;;;;;;;;16.80;72.80;;;;;;4277614;33;20017;-74
2021/05/29 13:11:50;;;;;;;;;;;17.00;72.30;;;;;;4300921;33;23063;-76
2021/05/29 13:14:27;;;;;;;;;;;17.10;72.10;;;;;;4290928;33;20427;-75
2021/05/29 13:17:03;;;;;;;;;;;17.10;72.00;;;;;;4290115;33;28293;-75
2021/05/29 13:20:04;;;;;;;;;;;17.20;72.00;;;;;;4290771;33;19994;-76
2021/05/29 13:22:40;;;;;;;;;;;17.20;71.80;;;;;;4292087;33;20046;-75
2021/05/29 13:25:26;;;;;;;;;;;17.30;72.00;;;;;;4279688;33;20002;-76
2021/05/29 13:28:06;;;;;;;;;;;17.20;71.80;;;;;;4291258;33;20074;-76
2021/05/29 13:30:53;;;;;;;;;;;17.30;71.90;;;;;;4303032;33;39373;-76
2021/05/29 13:33:21;;;;;;;;;;;17.30;72.00;;;;;;4278372;33;32475;-75
2021/05/29 13:35:48;;;;;;;;;;;17.40;71.90;;;;;;4289511;33;44608;-75
2021/05/29 13:38:15;;;;;;;;;;;17.40;71.80;;;;;;4289243;33;43278;-76
2021/05/29 13:40:45;;;;;;;;;;;17.40;71.60;;;;;;4278761;33;20483;-76
2021/05/29 13:43:15;;;;;;;;;;;17.40;71.40;;;;;;4289251;33;43397;-76
2021/05/29 13:45:42;;;;;;;;;;;17.40;71.50;;;;;;4302304;33;44179;-76
2021/05/29 13:48:09;;;;;;;;;;;17.50;71.40;;;;;;4288867;33;44477;-76
2021/05/29 13:50:37;;;;;;;;;;;17.50;71.50;;;;;;4289001;33;43917;-76
2021/05/29 13:53:07;;;;;;;;;;;17.50;71.50;;;;;;4301300;33;42448;-76
2021/05/29 13:55:39;;;;;;;;;;;17.60;71.10;;;;;;4302294;33;43543;-76
2021/05/29 13:58:09;;;;;;;;;;;17.60;71.30;;;;;;4289571;33;43302;-76
2021/05/29 14:00:37;;;;;;;;;;;17.60;71.20;;;;;;4302514;33;44939;-76
2021/05/29 14:03:04;;;;;;;;;;;17.70;71.50;;;;;;4302106;33;40365;-76
2021/05/29 14:05:31;;;;;;;;;;;17.70;71.40;;;;;;4301939;33;43350;-76
2021/05/29 14:08:04;;;;;;;;;;;17.70;71.10;;;;;;4278166;33;20002;-76
2021/05/29 14:10:34;;;;;;;;;;;17.70;70.70;;;;;;4302271;33;35174;-76
2021/05/29 14:13:04;;;;;;;;;;;17.80;71.00;;;;;;4289487;33;28130;-76
2021/05/29 14:15:37;;;;;;;;;;;17.80;70.70;;;;;;4289340;33;44265;-76
2021/05/29 14:18:07;;;;;;;;;;;17.80;70.60;;;;;;4288569;33;43140;-76
2021/05/29 14:20:36;;;;;;;;;;;17.80;70.10;;;;;;4289176;33;44657;-76
2021/05/29 14:23:06;;;;;;;;;;;17.90;70.50;;;;;;4277619;33;20412;-76
2021/05/29 14:25:33;;;;;;;;;;;18.00;70.60;;;;;;4302004;33;42450;-76
2021/05/29 14:28:03;;;;;;;;;;;18.00;70.50;;;;;;4303401;33;20425;-75
2021/05/29 14:30:33;;;;;;;;;;;18.00;69.90;;;;;;4289926;33;20017;-75
2021/05/29 14:33:04;;;;;;;;;;;18.00;70.00;;;;;;4277736;33;19999;-75
2021/05/29 14:35:34;;;;;;;;;;;18.10;70.10;;;;;;4276663;33;42818;-76
2021/05/29 14:38:04;;;;;;;;;;;18.10;70.10;;;;;;4288366;33;44683;-76
2021/05/29 14:40:33;;;;;;;;;;;18.20;69.90;;;;;;4301870;33;44423;-76
2021/05/29 14:43:06;;;;;;;;;;;18.20;70.00;;;;;;4288912;33;43099;-76
2021/05/29 14:45:40;;;;;;;;;;;18.20;70.00;;;;;;4276916;33;45592;-76
2021/05/29 14:48:08;;;;;;;;;;;18.20;69.90;;;;;;4288761;33;36011;-76
2021/05/29 14:50:36;;;;;;;;;;;18.20;69.90;;;;;;4276375;33;40851;-76
2021/05/29 14:53:05;;;;;;;;;;;18.30;69.90;;;;;;4288556;33;39636;-75
2021/05/29 14:55:38;;;;;;;;;;;18.30;70.00;;;;;;4288938;33;34786;-76
2021/05/29 14:58:05;;;;;;;;;;;18.30;69.60;;;;;;4287997;33;45099;-76
2021/05/29 15:00:35;;;;;;;;;;;18.30;69.40;;;;;;4289426;33;20013;-76